Airfield :
LOGIN :

Register | Disclaimer

   EN    FR    IT 

 










Legend :    VFR   Marginal VFR   IFR   Intensive IFR   Very Intensive IFR
Visi :
Ceiling :
>= 8 km
>= 3000ft
5 to 8 km
1000 to 3000 ft
1500m to 5 km
500 to 1000 ft
800 to 1500m
200 to 500 ft
< 800m
< 200 ft
Symbols :   Thunderstorms  Fog  Heavy snow  Heavy precipitations  Wind > 20 kt
SIGMETs :     Misc.  Thunderstorms  Icing  Turbulence  Mountain Waves  Volcanic Ashes







- Airport Elevation : 174 ft
- IATA code : RYG


ENRY - Moss , Rygge

CURRENT METAR :
  • 231420Z 25019G30KT CAVOK 10/M05 Q1015

EXPIRED METARs :
  • 231350Z 24015KT CAVOK 10/M04 Q1015
  • 231320Z 25017KT CAVOK 09/M05 Q1015
  • 231250Z 24016KT CAVOK 10/M04 Q1015
  • 231220Z 24015KT CAVOK 09/M04 Q1015
  • 231150Z 24012KT 200V260 CAVOK 10/M04 Q1015

TAF ENRY
Valid from the 23 at 12:00 until the 24 at 12:00 UTC


2312/2412 23012KT 9999 FEW020
TEMPO 2312/2318 25018G30KT
No reported NOTAMs for that airfield.
4 SIGMETs reported for the Norway FIR (ENOR) :
 
Severe turbulence
ENOS SIGMET A01 VALID 231200/231600 ENMI
ENOR NORWAY FIR SEV TURB FCST WI N5930 E00920 - N5850 E00730 - N6200 E00730 - N6200 E01000 - N5930 E00920 SFC/FL080 STNR NC=
Severe turbulence
ENBD SIGMET D04 VALID 231500/231900 ENVN
ENOR NORWAY FIR SEV TURB FCST N OF N6500 AND S OF N6800 AND E OF E01200 SFC/FL080 STNR NC=
Severe turbulence
ENBD SIGMET D03 VALID 231100/231500 ENVN
ENOR NORWAY FIR SEV TURB FCST WI N6500 E01115 - N6645 E01245 - N6810 E01530 - N6755 E01625 - N6610 E01440 - N6500 E01410 - N6500 E01115 SFC/FL080 STNR NC=
Severe turbulence
ENBD SIGMET C04 VALID 231200/231600 ENVV
ENOR NORWAY FIR SEV TURB FCST WI N6200 E00500 - N6500 E01130 - N6500 E01430 - N6330 E01230 - N6200 E00730 - N6200 E00500 SFC/FL080 STNR NC=



MET'MAP, your aeronautical weather chart ! - Copyright ORBIFLY December 2007 - Disclaimer

ORBIFLY MET'MAP TEAM :

Programming & Development : Alexandra Zaïnal
Concept & Development : Baudouin d'Aumeries
Co-Development & Prog : Marc-Olivier Méhu
Technical & hardware support : Manuel Goepfert

Contact : metmap@orbifly.com




SOURCES & CREDITS :

   NOAA